Time;durP1;ratioP1;P1;durP2;ratioP2;P2;SDS_P1;SDS_P2;PMS_P1;PMS_P2;Temp;Humidity;BMP_temperature;BMP_pressure;BME280_temperature;BME280_humidity;BME280_pressure;Samples;Min_cycle;Max_cycle;Signal;HPM_P1;HPM_P2
2023/08/09 00:00:11;;;;;;;4.53;1.60;;;;;15.10;94041.00;;;;7396247;19;20133;-74
2023/08/09 00:02:40;;;;;;;2.05;1.50;;;;;15.10;94038.00;;;;7394706;19;20141;-75
2023/08/09 00:05:16;;;;;;;3.83;1.90;;;;;15.20;94022.00;;;;7395286;19;20164;-75
2023/08/09 00:07:50;;;;;;;1.98;1.48;;;;;15.10;94027.00;;;;7395825;19;20133;-75
2023/08/09 00:10:25;;;;;;;2.38;1.50;;;;;15.10;94024.00;;;;7394135;19;20128;-75
2023/08/09 00:12:55;;;;;;;2.55;1.60;;;;;15.10;94023.00;;;;7394481;19;20156;-76
2023/08/09 00:15:31;;;;;;;5.88;1.60;;;;;15.10;94024.00;;;;7394327;19;20144;-76
2023/08/09 00:17:59;;;;;;;3.28;1.60;;;;;15.00;94020.00;;;;7395834;19;20442;-75
2023/08/09 00:20:33;;;;;;;2.88;1.70;;;;;15.00;94024.00;;;;7395176;19;20607;-75
2023/08/09 00:23:01;;;;;;;2.83;1.30;;;;;14.90;94018.00;;;;7394943;19;20133;-75
2023/08/09 00:25:38;;;;;;;5.72;1.70;;;;;14.90;94015.00;;;;7395036;19;20150;-74
2023/08/09 00:28:06;;;;;;;2.35;1.50;;;;;14.80;94011.00;;;;7394408;19;20132;-79
2023/08/09 00:30:40;;;;;;;1.60;1.50;;;;;15.00;94012.00;;;;7401718;19;20144;-81
2023/08/09 00:33:14;;;;;;;2.45;1.77;;;;;14.90;94006.00;;;;7402735;19;20140;-81
2023/08/09 00:36:02;;;;;;;4.35;1.58;;;;;14.90;93999.00;;;;7398750;19;20144;-80
2023/08/09 00:38:36;;;;;;;3.67;1.63;;;;;14.90;94000.00;;;;7402818;19;20137;-80
2023/08/09 00:41:12;;;;;;;4.05;1.60;;;;;14.90;94006.00;;;;7402010;19;20698;-80
2023/08/09 00:43:45;;;;;;;3.03;1.30;;;;;14.90;94004.00;;;;7401892;19;20615;-80
2023/08/09 00:46:21;;;;;;;4.13;1.45;;;;;14.80;94000.00;;;;7400471;19;20479;-79
2023/08/09 00:48:50;;;;;;;2.65;1.45;;;;;14.90;94005.00;;;;7399720;19;20608;-77
2023/08/09 00:51:24;;;;;;;2.63;1.70;;;;;14.90;94011.00;;;;7400954;19;20596;-79
2023/08/09 00:53:58;;;;;;;2.15;1.63;;;;;15.10;94015.00;;;;7401804;19;20505;-80
2023/08/09 00:56:33;;;;;;;2.83;1.75;;;;;15.00;94017.00;;;;7400046;19;21403;-81
2023/08/09 00:59:06;;;;;;;2.67;1.42;;;;;15.10;93994.00;;;;7398049;19;20173;-82
2023/08/09 01:01:48;;;;;;;2.97;1.67;;;;;15.00;94000.00;;;;7394150;19;20188;-73
2023/08/09 01:04:30;;;;;;;2.40;1.65;;;;;15.10;93997.00;;;;7402401;19;20216;-74
2023/08/09 01:07:27;;;;;;;2.45;1.38;;;;;15.10;93991.00;;;;7400045;19;20177;-75
2023/08/09 01:10:25;;;;;;;2.25;1.40;;;;;15.00;93990.00;;;;7402392;19;20148;-74
2023/08/09 01:13:06;;;;;;;1.77;1.30;;;;;15.00;93999.00;;;;7400906;19;20161;-71
2023/08/09 01:15:36;;;;;;;3.58;1.63;;;;;15.20;93983.00;;;;7402303;19;20144;-73
2023/08/09 01:18:11;;;;;;;4.97;1.80;;;;;15.20;93982.00;;;;7404818;19;20584;-74
2023/08/09 01:20:49;;;;;;;1.88;1.30;;;;;15.10;93980.00;;;;7403128;19;20136;-74
2023/08/09 01:23:32;;;;;;;1.50;1.40;;;;;15.00;93986.00;;;;7400935;19;20630;-72
2023/08/09 01:26:00;;;;;;;3.83;1.55;;;;;15.20;93987.00;;;;7402188;19;20591;-73
2023/08/09 01:28:35;;;;;;;2.28;1.42;;;;;15.10;93980.00;;;;7399735;19;20160;-72
2023/08/09 01:31:03;;;;;;;3.33;1.80;;;;;15.30;93978.00;;;;7400690;19;20150;-72
2023/08/09 01:33:38;;;;;;;3.70;1.55;;;;;15.20;93983.00;;;;7403674;19;20200;-75
2023/08/09 01:36:15;;;;;;;3.05;1.67;;;;;15.10;93985.00;;;;7401993;19;20172;-75
2023/08/09 01:39:06;;;;;;;2.20;1.25;;;;;15.20;93992.00;;;;7401401;19;20148;-73
2023/08/09 01:41:35;;;;;;;3.10;1.70;;;;;15.20;93991.00;;;;7398134;19;20618;-75
2023/08/09 01:44:11;;;;;;;1.60;1.27;;;;;15.20;93981.00;;;;7402260;19;20490;-76
2023/08/09 01:46:44;;;;;;;1.67;1.45;;;;;15.20;93993.00;;;;7403264;19;20151;-73
2023/08/09 01:49:21;;;;;;;2.00;1.50;;;;;15.30;93997.00;;;;7397542;19;20145;-74
2023/08/09 01:51:51;;;;;;;2.53;1.45;;;;;15.30;94000.00;;;;7400252;19;20133;-74
2023/08/09 01:54:25;;;;;;;4.88;1.23;;;;;15.30;94009.00;;;;7400562;19;20151;-72
2023/08/09 01:57:03;;;;;;;1.30;1.20;;;;;15.20;94019.00;;;;7397263;19;20181;-74
2023/08/09 01:59:38;;;;;;;2.30;1.80;;;;;15.30;94017.00;;;;7400034;19;20132;-75
2023/08/09 02:02:19;;;;;;;2.45;1.85;;;;;15.40;94014.00;;;;7399009;19;20195;-72
2023/08/09 02:05:00;;;;;;;1.73;1.60;;;;;15.40;94013.00;;;;7396872;19;20594;-71
2023/08/09 02:07:34;;;;;;;2.90;1.67;;;;;15.40;94014.00;;;;7399778;19;20160;-72
2023/08/09 02:10:10;;;;;;;3.67;1.55;;;;;15.40;94019.00;;;;7399324;19;20137;-73
2023/08/09 02:12:47;;;;;;;2.67;1.42;;;;;15.40;94014.00;;;;7399393;19;20141;-70
2023/08/09 02:15:22;;;;;;;3.08;1.30;;;;;15.30;94003.00;;;;7399475;19;20208;-74
2023/08/09 02:17:49;;;;;;;3.17;1.52;;;;;15.40;94005.00;;;;7398999;19;20145;-74
2023/08/09 02:20:25;;;;;;;2.53;1.50;;;;;15.40;94015.00;;;;7399613;19;20171;-74
2023/08/09 02:22:59;;;;;;;2.75;1.80;;;;;15.40;94008.00;;;;7399059;19;20128;-73
2023/08/09 02:25:33;;;;;;;3.65;1.95;;;;;15.30;94018.00;;;;7398273;19;20145;-75
2023/08/09 02:28:01;;;;;;;3.35;1.60;;;;;15.30;94014.00;;;;7398217;19;20141;-73
2023/08/09 02:30:36;;;;;;;2.33;1.50;;;;;15.20;94009.00;;;;7398862;19;20599;-72
2023/08/09 02:33:11;;;;;;;2.33;1.58;;;;;15.20;94009.00;;;;7399867;19;20169;-73
2023/08/09 02:35:57;;;;;;;4.68;1.70;;;;;15.20;94015.00;;;;7400080;19;20634;-72
2023/08/09 02:38:27;;;;;;;2.20;1.45;;;;;15.20;94008.00;;;;7398676;19;20136;-73
2023/08/09 02:41:03;;;;;;;2.17;1.73;;;;;15.20;94015.00;;;;7398794;19;20141;-73
2023/08/09 02:43:32;;;;;;;1.95;1.40;;;;;15.00;94013.00;;;;7395062;19;20145;-73
2023/08/09 02:46:06;;;;;;;2.95;1.80;;;;;15.20;94013.00;;;;7387051;19;20433;-72
2023/08/09 02:48:34;;;;;;;2.95;1.50;;;;;15.10;94019.00;;;;7394523;19;20141;-73
2023/08/09 02:51:08;;;;;;;4.72;1.70;;;;;15.00;94021.00;;;;7394679;19;20196;-73
2023/08/09 02:54:01;;;;;;;3.92;1.63;;;;;15.00;94012.00;;;;7396968;19;20145;-73
2023/08/09 02:56:35;;;;;;;2.78;1.60;;;;;15.10;94023.00;;;;7397055;19;20623;-73
2023/08/09 02:59:05;;;;;;;2.30;1.40;;;;;15.00;94025.00;;;;7396330;19;20144;-74
2023/08/09 03:01:39;;;;;;;4.53;1.63;;;;;15.00;94026.00;;;;7395108;19;20164;-72
2023/08/09 03:04:20;;;;;;;6.00;1.58;;;;;15.00;94034.00;;;;7388189;19;20143;-71
2023/08/09 03:06:54;;;;;;;2.58;1.80;;;;;15.00;94032.00;;;;7394214;19;20173;-71
2023/08/09 03:09:29;;;;;;;4.20;1.77;;;;;15.00;94029.00;;;;7395350;19;20148;-74
2023/08/09 03:12:04;;;;;;;3.00;1.50;;;;;15.00;94033.00;;;;7398685;19;20144;-75
2023/08/09 03:14:32;;;;;;;2.38;1.45;;;;;15.00;94032.00;;;;7392939;19;20159;-74
2023/08/09 03:17:07;;;;;;;2.47;1.70;;;;;15.00;94029.00;;;;7398211;19;20135;-75
2023/08/09 03:19:42;;;;;;;3.85;1.25;;;;;15.00;94030.00;;;;7399534;19;20136;-78
2023/08/09 03:22:17;;;;;;;4.45;1.60;;;;;15.10;94029.00;;;;7396441;19;20140;-76
2023/08/09 03:24:52;;;;;;;7.13;1.80;;;;;15.30;94021.00;;;;7397414;19;20137;-75
2023/08/09 03:27:27;;;;;;;5.10;1.75;;;;;15.10;94028.00;;;;7393270;19;20144;-79
2023/08/09 03:30:05;;;;;;;3.97;1.50;;;;;15.10;94023.00;;;;7394680;19;20618;-80
2023/08/09 03:32:41;;;;;;;2.03;1.50;;;;;15.00;94023.00;;;;7397874;19;20137;-77
2023/08/09 03:35:10;;;;;;;2.17;1.40;;;;;14.90;94018.00;;;;7399505;19;20588;-76
2023/08/09 03:37:46;;;;;;;2.53;1.40;;;;;14.90;94032.00;;;;7396130;19;20180;-77
2023/08/09 03:40:21;;;;;;;3.55;1.50;;;;;14.90;94028.00;;;;7395200;19;20144;-78
2023/08/09 03:42:56;;;;;;;2.60;1.55;;;;;15.00;94033.00;;;;7399131;19;20153;-77
2023/08/09 03:45:24;;;;;;;2.90;1.55;;;;;15.00;94024.00;;;;7393207;19;20758;-80
2023/08/09 03:47:58;;;;;;;2.70;1.35;;;;;14.90;94038.00;;;;7396831;19;20133;-77
2023/08/09 03:50:26;;;;;;;2.95;1.70;;;;;14.80;94042.00;;;;7396703;19;20132;-76
2023/08/09 03:53:00;;;;;;;4.07;1.52;;;;;14.80;94040.00;;;;7396225;19;20599;-76
2023/08/09 03:55:28;;;;;;;2.33;1.33;;;;;14.90;94045.00;;;;7397791;19;20156;-76
2023/08/09 03:58:03;;;;;;;2.03;1.30;;;;;14.90;94053.00;;;;7396612;19;20144;-76
2023/08/09 04:00:38;;;;;;;2.70;1.52;;;;;14.90;94046.00;;;;7395707;19;20152;-78
2023/08/09 04:03:20;;;;;;;1.30;1.20;;;;;14.90;94049.00;;;;7395284;19;20162;-78
2023/08/09 04:05:56;;;;;;;3.58;1.65;;;;;14.90;94049.00;;;;7394363;19;20131;-81
2023/08/09 04:08:31;;;;;;;3.28;1.75;;;;;14.90;94048.00;;;;7395638;19;20152;-78
2023/08/09 04:10:59;;;;;;;3.28;1.48;;;;;14.90;94051.00;;;;7396932;19;20132;-81
2023/08/09 04:13:34;;;;;;;2.15;1.35;;;;;14.90;94047.00;;;;7394044;19;20480;-78
2023/08/09 04:16:09;;;;;;;2.53;1.60;;;;;14.90;94040.00;;;;7390296;19;20144;-78
2023/08/09 04:18:43;;;;;;;2.58;1.65;;;;;14.90;94044.00;;;;7394710;19;20507;-77
2023/08/09 04:21:18;;;;;;;2.70;1.33;;;;;14.90;94051.00;;;;7393690;19;20595;-77
2023/08/09 04:23:53;;;;;;;3.10;1.70;;;;;14.80;94048.00;;;;7394876;19;20141;-77
2023/08/09 04:26:21;;;;;;;4.30;1.83;;;;;14.80;94058.00;;;;7396471;19;20129;-76
2023/08/09 04:28:50;;;;;;;2.95;1.30;;;;;14.80;94046.00;;;;7393516;19;20137;-78
2023/08/09 04:31:24;;;;;;;3.35;1.17;;;;;14.90;94053.00;;;;7394648;19;20734;-78
2023/08/09 04:33:52;;;;;;;1.55;1.27;;;;;14.90;94043.00;;;;7393245;19;20663;-76
2023/08/09 04:36:27;;;;;;;5.95;1.63;;;;;15.00;94051.00;;;;7395453;19;20174;-76
2023/08/09 04:38:54;;;;;;;3.17;1.20;;;;;15.00;94054.00;;;;7394923;19;20141;-78
2023/08/09 04:41:28;;;;;;;2.03;1.38;;;;;15.00;94048.00;;;;7395674;19;20133;-78
2023/08/09 04:43:57;;;;;;;3.83;1.33;;;;;15.00;94041.00;;;;7393471;19;20129;-79
2023/08/09 04:46:32;;;;;;;1.90;1.50;;;;;14.90;94042.00;;;;7392550;19;20215;-78
2023/08/09 04:48:59;;;;;;;3.08;1.80;;;;;14.90;94041.00;;;;7393405;19;20153;-78
2023/08/09 04:51:33;;;;;;;1.92;1.50;;;;;14.80;94037.00;;;;7392584;19;20152;-79
2023/08/09 04:54:11;;;;;;;4.15;1.48;;;;;15.00;94050.00;;;;7394049;19;20225;-79
2023/08/09 04:56:46;;;;;;;4.78;1.38;;;;;15.00;94053.00;;;;7392330;19;20452;-75
2023/08/09 04:59:19;;;;;;;2.90;1.35;;;;;15.00;94046.00;;;;7393425;19;20144;-78
2023/08/09 05:02:07;;;;;;;1.85;1.27;;;;;15.20;94048.00;;;;7392688;19;20180;-76
2023/08/09 05:04:42;;;;;;;1.50;1.40;;;;;15.20;94046.00;;;;7379146;19;20145;-79
2023/08/09 05:07:17;;;;;;;2.40;1.50;;;;;15.20;94053.00;;;;7380234;19;20155;-79
2023/08/09 05:09:44;;;;;;;2.67;1.50;;;;;15.20;94044.00;;;;7378974;19;20618;-77
2023/08/09 05:12:18;;;;;;;2.47;1.40;;;;;15.20;94043.00;;;;7379507;19;20613;-78
2023/08/09 05:14:46;;;;;;;2.00;1.38;;;;;15.30;94047.00;;;;7376863;19;20462;-78
2023/08/09 05:17:21;;;;;;;2.00;1.48;;;;;15.40;94042.00;;;;7384457;19;20140;-77
2023/08/09 05:19:48;;;;;;;2.83;1.60;;;;;15.60;94046.00;;;;7386395;19;20997;-78
2023/08/09 05:22:23;;;;;;;2.47;1.30;;;;;15.60;94046.00;;;;7388992;19;20574;-75
2023/08/09 05:25:02;;;;;;;1.77;1.30;;;;;15.80;94044.00;;;;7384660;19;20159;-75
2023/08/09 05:27:29;;;;;;;2.63;1.58;;;;;15.80;94043.00;;;;7387992;19;20132;-80
2023/08/09 05:30:04;;;;;;;4.13;1.50;;;;;15.80;94048.00;;;;7384646;19;20155;-80
2023/08/09 05:32:32;;;;;;;3.33;1.40;;;;;15.80;94045.00;;;;7384622;19;20174;-80
2023/08/09 05:35:07;;;;;;;5.35;1.48;;;;;15.90;94053.00;;;;7384282;19;20168;-77
2023/08/09 05:37:35;;;;;;;2.75;1.48;;;;;15.90;94039.00;;;;7386220;19;20508;-75
2023/08/09 05:40:13;;;;;;;4.15;1.52;;;;;16.10;94047.00;;;;7387855;19;20180;-73
2023/08/09 05:42:47;;;;;;;3.95;1.40;;;;;15.90;94044.00;;;;7386083;19;20181;-73
2023/08/09 05:45:20;;;;;;;2.63;1.60;;;;;16.10;94046.00;;;;7386895;19;20152;-75
2023/08/09 05:47:48;;;;;;;3.47;1.73;;;;;15.90;94044.00;;;;7389845;19;20137;-74
2023/08/09 05:50:22;;;;;;;1.88;1.35;;;;;15.90;94053.00;;;;7389113;19;20215;-73
2023/08/09 05:52:56;;;;;;;2.42;1.45;;;;;15.80;94047.00;;;;7385627;19;20144;-73
2023/08/09 05:55:31;;;;;;;2.08;1.33;;;;;15.80;94051.00;;;;7387799;19;20471;-75
2023/08/09 05:57:58;;;;;;;3.42;1.52;;;;;15.90;94049.00;;;;7387683;19;20181;-74
2023/08/09 06:00:32;;;;;;;4.53;1.63;;;;;15.80;94047.00;;;;7385004;19;20614;-73
2023/08/09 06:03:13;;;;;;;2.70;1.65;;;;;15.90;94050.00;;;;7387498;19;20152;-73
2023/08/09 06:05:48;;;;;;;2.90;1.48;;;;;15.90;94057.00;;;;7387158;19;20632;-74
2023/08/09 06:08:16;;;;;;;2.38;1.50;;;;;15.90;94062.00;;;;7387509;19;20133;-73
2023/08/09 06:10:43;;;;;;;3.47;1.40;;;;;16.00;94053.00;;;;7386036;19;20148;-73
2023/08/09 06:13:19;;;;;;;2.63;1.23;;;;;16.20;94058.00;;;;7385571;19;20530;-75
2023/08/09 06:15:47;;;;;;;1.73;1.50;;;;;16.10;94069.00;;;;7385412;19;20137;-74
2023/08/09 06:18:21;;;;;;;4.63;1.77;;;;;16.10;94061.00;;;;7386227;19;20152;-72
2023/08/09 06:20:55;;;;;;;1.70;1.45;;;;;16.30;94063.00;;;;7386138;19;20502;-72
2023/08/09 06:23:29;;;;;;;4.25;1.40;;;;;15.90;94076.00;;;;7386481;19;20160;-73
2023/08/09 06:26:03;;;;;;;2.80;1.50;;;;;16.00;94078.00;;;;7385904;19;20151;-73
2023/08/09 06:28:30;;;;;;;2.08;1.60;;;;;15.90;94073.00;;;;7385596;19;20229;-75
2023/08/09 06:31:05;;;;;;;1.92;1.55;;;;;16.00;94077.00;;;;7388708;19;20623;-72
2023/08/09 06:33:37;;;;;;;2.53;1.48;;;;;15.90;94076.00;;;;7385493;19;20152;-74
2023/08/09 06:36:12;;;;;;;4.82;1.52;;;;;16.00;94058.00;;;;7383962;19;20148;-73
2023/08/09 06:38:41;;;;;;;3.15;1.50;;;;;16.40;94061.00;;;;7386298;19;20157;-75
2023/08/09 06:41:16;;;;;;;2.78;1.65;;;;;16.80;94070.00;;;;7386481;19;20493;-74
2023/08/09 06:43:43;;;;;;;2.03;1.40;;;;;16.70;94077.00;;;;7385501;19;20152;-73
2023/08/09 06:46:28;;;;;;;1.50;1.35;;;;;16.30;94084.00;;;;7385379;19;20601;-75
2023/08/09 06:49:09;;;;;;;2.78;1.50;;;;;16.00;94095.00;;;;7383870;19;20145;-73
2023/08/09 06:51:44;;;;;;;4.00;1.83;;;;;15.80;94096.00;;;;7385263;19;20148;-74
2023/08/09 06:54:11;;;;;;;5.88;1.45;;;;;15.90;94086.00;;;;7384984;19;20152;-75
2023/08/09 06:56:45;;;;;;;3.92;1.60;;;;;16.10;94085.00;;;;7384907;19;20524;-74
2023/08/09 06:59:14;;;;;;;2.78;1.70;;;;;16.30;94075.00;;;;7386736;19;20121;-73
2023/08/09 07:01:55;;;;;;;5.05;1.85;;;;;16.40;94095.00;;;;7382922;19;21356;-74
2023/08/09 07:04:30;;;;;;;2.28;1.73;;;;;16.20;94096.00;;;;7382342;19;20151;-74
2023/08/09 07:07:05;;;;;;;2.65;1.70;;;;;16.10;94097.00;;;;7385300;19;20652;-74
2023/08/09 07:09:40;;;;;;;2.65;1.70;;;;;16.10;94098.00;;;;7386976;19;20140;-75
2023/08/09 07:12:14;;;;;;;3.05;1.90;;;;;16.00;94096.00;;;;7384832;19;20156;-77
2023/08/09 07:14:49;;;;;;;3.20;1.48;;;;;16.00;94095.00;;;;7380211;19;20522;-75
2023/08/09 07:17:24;;;;;;;4.50;1.83;;;;;16.10;94116.00;;;;7383565;19;20480;-74
2023/08/09 07:19:59;;;;;;;1.60;1.30;;;;;15.90;94105.00;;;;7384270;19;20479;-75
2023/08/09 07:22:34;;;;;;;4.18;1.92;;;;;16.20;94101.00;;;;7384028;19;20766;-74
2023/08/09 07:25:10;;;;;;;2.55;1.75;;;;;16.30;94107.00;;;;7383350;19;20152;-76
2023/08/09 07:27:46;;;;;;;9.13;1.90;;;;;16.50;94118.00;;;;7384548;19;20155;-75
2023/08/09 07:30:16;;;;;;;2.80;1.40;;;;;16.50;94112.00;;;;7385191;19;20152;-75
2023/08/09 07:32:50;;;;;;;1.92;1.50;;;;;16.60;94114.00;;;;7384640;19;20597;-72
2023/08/09 07:35:18;;;;;;;2.72;1.77;;;;;16.70;94107.00;;;;7384534;19;20141;-75
2023/08/09 07:37:52;;;;;;;2.20;1.65;;;;;17.10;94116.00;;;;7383268;19;20148;-74
2023/08/09 07:40:20;;;;;;;3.83;1.80;;;;;17.10;94111.00;;;;7380378;19;20579;-74
2023/08/09 07:42:55;;;;;;;5.32;1.63;;;;;17.00;94127.00;;;;7384401;19;20145;-76
2023/08/09 07:45:30;;;;;;;3.28;1.77;;;;;16.70;94117.00;;;;7384450;19;20148;-74
2023/08/09 07:47:58;;;;;;;2.25;1.40;;;;;16.70;94121.00;;;;7382948;19;20588;-76
2023/08/09 07:50:26;;;;;;;1.92;1.23;;;;;16.80;94126.00;;;;7382872;19;20155;-74
2023/08/09 07:53:00;;;;;;;4.22;1.48;;;;;16.90;94118.00;;;;7384482;19;20129;-75
2023/08/09 07:55:29;;;;;;;4.25;1.65;;;;;17.30;94114.00;;;;7385425;19;20652;-74
2023/08/09 07:58:03;;;;;;;4.07;1.40;;;;;17.70;94125.00;;;;7383882;19;20590;-72
2023/08/09 08:00:31;;;;;;;3.05;1.80;;;;;17.80;94118.00;;;;7380705;19;20140;-74
2023/08/09 08:03:24;;;;;;;2.10;1.60;;;;;17.90;94116.00;;;;7382337;19;20191;-73
2023/08/09 08:05:52;;;;;;;3.00;1.95;;;;;18.10;94133.00;;;;7383639;19;20144;-72
2023/08/09 08:08:25;;;;;;;1.73;1.45;;;;;18.50;94120.00;;;;7384392;19;20163;-73
2023/08/09 08:11:00;;;;;;;2.83;1.85;;;;;18.70;94117.00;;;;7383639;19;20151;-71
2023/08/09 08:13:34;;;;;;;2.35;1.70;;;;;18.60;94123.00;;;;7380260;19;20594;-73
2023/08/09 08:16:08;;;;;;;3.97;2.20;;;;;18.30;94126.00;;;;7383540;19;20149;-74
2023/08/09 08:18:36;;;;;;;2.47;1.70;;;;;17.80;94144.00;;;;7383863;19;20525;-72
2023/08/09 08:21:09;;;;;;;2.78;1.80;;;;;17.30;94130.00;;;;7382489;19;20149;-76
2023/08/09 08:23:37;;;;;;;2.30;1.80;;;;;17.30;94140.00;;;;7382264;19;20141;-76
2023/08/09 08:26:12;;;;;;;2.20;1.67;;;;;17.50;94141.00;;;;7383066;19;20666;-75
2023/08/09 08:28:40;;;;;;;2.85;1.63;;;;;17.90;94141.00;;;;7382755;19;20155;-74
2023/08/09 08:31:19;;;;;;;3.63;1.90;;;;;17.90;94155.00;;;;7381297;19;20530;-76
2023/08/09 08:33:49;;;;;;;3.25;1.90;;;;;17.60;94162.00;;;;7381223;19;20151;-77
2023/08/09 08:36:29;;;;;;;4.75;1.75;;;;;17.50;94151.00;;;;7382588;19;20124;-74
2023/08/09 08:38:58;;;;;;;3.17;1.80;;;;;17.30;94161.00;;;;7381391;19;20144;-75
2023/08/09 08:41:34;;;;;;;3.03;1.90;;;;;17.60;94177.00;;;;7377082;19;20159;-75
2023/08/09 08:44:11;;;;;;;5.35;2.15;;;;;17.40;94171.00;;;;7382220;19;20157;-74
2023/08/09 08:46:39;;;;;;;3.30;2.00;;;;;17.30;94160.00;;;;7380343;19;20141;-75
2023/08/09 08:49:17;;;;;;;1.88;1.70;;;;;17.30;94160.00;;;;7382124;19;20172;-73
2023/08/09 08:51:55;;;;;;;2.58;2.05;;;;;17.40;94176.00;;;;7386261;19;20146;-72
2023/08/09 08:54:24;;;;;;;4.07;1.92;;;;;17.40;94173.00;;;;7389587;19;20592;-74
2023/08/09 08:56:51;;;;;;;4.88;2.10;;;;;17.30;94177.00;;;;7386539;19;20156;-73
2023/08/09 08:59:27;;;;;;;2.58;1.70;;;;;18.00;94167.00;;;;7388687;19;20192;-73
2023/08/09 09:01:54;;;;;;;4.35;1.90;;;;;18.20;94185.00;;;;7385553;19;20184;-75
2023/08/09 09:04:38;;;;;;;4.45;2.08;;;;;18.10;94176.00;;;;7385972;19;20547;-75
2023/08/09 09:07:06;;;;;;;3.65;1.70;;;;;18.00;94180.00;;;;7386046;19;20144;-73
2023/08/09 09:10:05;;;;;;;5.68;2.10;;;;;17.80;94194.00;;;;7386579;19;20121;-73
2023/08/09 09:12:37;;;;;;;3.05;2.03;;;;;17.70;94187.00;;;;7386380;19;20495;-74
2023/08/09 09:15:14;;;;;;;3.20;2.00;;;;;17.70;94194.00;;;;7385084;19;20144;-75
2023/08/09 09:17:45;;;;;;;2.67;1.95;;;;;17.60;94207.00;;;;7385404;19;20137;-75
2023/08/09 09:20:29;;;;;;;3.15;1.80;;;;;17.20;94201.00;;;;7383455;19;20167;-74
2023/08/09 09:23:28;;;;;;;10.48;2.30;;;;;17.40;94199.00;;;;7385025;19;20217;-74
2023/08/09 09:26:17;;;;;;;4.03;2.13;;;;;17.40;94207.00;;;;7387137;19;20165;-74
2023/08/09 09:28:53;;;;;;;3.63;1.98;;;;;17.20;94198.00;;;;7383945;19;20145;-74
2023/08/09 09:31:39;;;;;;;5.40;2.10;;;;;17.00;94202.00;;;;7384794;19;20151;-73
2023/08/09 09:34:14;;;;;;;3.72;1.88;;;;;17.10;94195.00;;;;7385708;19;20152;-73
2023/08/09 09:36:49;;;;;;;6.45;1.77;;;;;17.40;94184.00;;;;7384978;19;20152;-74
2023/08/09 09:39:17;;;;;;;3.00;1.77;;;;;17.90;94195.00;;;;7385737;19;20125;-74
2023/08/09 09:41:50;;;;;;;3.45;1.88;;;;;17.80;94208.00;;;;7383590;19;20164;-75
2023/08/09 09:44:20;;;;;;;2.42;1.92;;;;;17.70;94212.00;;;;7384496;19;20611;-77
2023/08/09 09:46:55;;;;;;;5.90;2.10;;;;;17.30;94203.00;;;;7385845;19;20149;-73
2023/08/09 09:49:24;;;;;;;3.30;1.95;;;;;17.80;94212.00;;;;7387151;19;20133;-74
2023/08/09 09:51:58;;;;;;;4.85;1.92;;;;;17.90;94210.00;;;;7384105;19;20150;-73
2023/08/09 09:54:28;;;;;;;5.38;2.08;;;;;17.70;94211.00;;;;7387557;19;20301;-74
2023/08/09 09:57:02;;;;;;;2.25;1.63;;;;;17.40;94217.00;;;;7385619;19;20151;-75
2023/08/09 09:59:31;;;;;;;6.00;1.83;;;;;17.30;94225.00;;;;7385389;19;20167;-73
2023/08/09 10:02:12;;;;;;;5.40;2.13;;;;;17.00;94216.00;;;;7384703;19;20175;-77
2023/08/09 10:04:48;;;;;;;3.92;1.70;;;;;17.00;94213.00;;;;7384841;19;20157;-77
2023/08/09 10:07:23;;;;;;;4.70;2.00;;;;;17.40;94206.00;;;;7385330;19;20159;-75
2023/08/09 10:10:04;;;;;;;2.33;1.98;;;;;17.80;94196.00;;;;7385124;19;20149;-73
2023/08/09 10:12:33;;;;;;;5.40;2.38;;;;;17.70;94200.00;;;;7384213;19;20212;-74
2023/08/09 10:15:11;;;;;;;6.85;1.85;;;;;17.90;94202.00;;;;7379561;19;20152;-73
2023/08/09 10:17:41;;;;;;;3.90;2.15;;;;;18.30;94203.00;;;;7384547;19;20132;-73
2023/08/09 10:20:17;;;;;;;3.30;1.63;;;;;18.70;94207.00;;;;7384800;19;20728;-74
2023/08/09 10:22:47;;;;;;;3.72;2.17;;;;;18.20;94204.00;;;;7385931;19;20595;-76
2023/08/09 10:25:45;;;;;;;4.50;2.00;;;;;18.70;94218.00;;;;7384826;19;20210;-75
2023/08/09 10:28:13;;;;;;;6.57;2.05;;;;;18.20;94213.00;;;;7383723;19;20140;-72
2023/08/09 10:30:50;;;;;;;3.90;1.90;;;;;18.80;94196.00;;;;7384211;19;20149;-75
2023/08/09 10:33:24;;;;;;;4.20;1.70;;;;;19.40;94159.00;;;;7384402;19;20147;-75
2023/08/09 10:35:52;;;;;;;2.90;2.15;;;;;19.80;94183.00;;;;7386712;19;20165;-76
2023/08/09 10:38:32;;;;;;;4.50;1.73;;;;;20.30;94192.00;;;;7386298;19;20196;-73
2023/08/09 10:41:13;;;;;;;4.00;1.77;;;;;20.00;94202.00;;;;7385055;19;20188;-74
2023/08/09 10:43:48;;;;;;;3.20;1.90;;;;;19.90;94201.00;;;;7384718;19;20166;-74
2023/08/09 10:46:24;;;;;;;3.90;1.63;;;;;19.00;94203.00;;;;7383747;19;20145;-77
2023/08/09 10:48:58;;;;;;;2.75;1.80;;;;;19.00;94206.00;;;;7382776;19;20177;-75
2023/08/09 10:51:33;;;;;;;5.20;1.83;;;;;18.80;94200.00;;;;7381535;19;20148;-80
2023/08/09 10:54:03;;;;;;;3.05;1.55;;;;;19.10;94205.00;;;;7385633;19;20149;-78
2023/08/09 10:56:45;;;;;;;4.50;1.70;;;;;19.20;94192.00;;;;7385311;19;20136;-78
2023/08/09 10:59:24;;;;;;;5.10;2.08;;;;;19.80;94193.00;;;;7387534;19;20148;-77
2023/08/09 11:02:05;;;;;;;5.40;1.95;;;;;19.20;94197.00;;;;7381728;19;20187;-75
2023/08/09 11:04:34;;;;;;;2.97;1.83;;;;;19.30;94200.00;;;;7385001;19;20215;-78
2023/08/09 11:07:19;;;;;;;3.28;1.90;;;;;19.80;94200.00;;;;7384976;19;20192;-75
2023/08/09 11:09:56;;;;;;;3.83;1.50;;;;;19.60;94205.00;;;;7384607;19;20647;-77
2023/08/09 11:12:31;;;;;;;2.63;1.80;;;;;19.10;94199.00;;;;7382550;19;20156;-75
2023/08/09 11:14:59;;;;;;;2.95;1.95;;;;;19.20;94201.00;;;;7381009;19;20578;-76
2023/08/09 11:17:27;;;;;;;2.55;1.60;;;;;19.50;94202.00;;;;7384065;19;20141;-76
2023/08/09 11:20:13;;;;;;;2.95;1.98;;;;;19.60;94205.00;;;;7384760;19;20148;-74
2023/08/09 11:22:51;;;;;;;2.50;1.70;;;;;19.70;94203.00;;;;7383677;19;20528;-77
2023/08/09 11:25:28;;;;;;;2.55;1.98;;;;;20.10;94197.00;;;;7385240;19;20155;-77
2023/08/09 11:27:58;;;;;;;3.30;1.73;;;;;19.90;94192.00;;;;7384384;19;20486;-77
2023/08/09 11:30:34;;;;;;;2.10;1.58;;;;;20.60;94195.00;;;;7384753;19;20161;-77
2023/08/09 11:33:04;;;;;;;4.72;2.17;;;;;20.20;94200.00;;;;7384508;19;20481;-78
2023/08/09 11:35:43;;;;;;;4.20;1.80;;;;;19.70;94203.00;;;;7386170;19;20653;-78
2023/08/09 11:38:15;;;;;;;3.85;1.88;;;;;20.30;94193.00;;;;7384930;19;20140;-78
2023/08/09 11:40:51;;;;;;;2.47;1.95;;;;;20.30;94197.00;;;;7381213;19;20152;-77
2023/08/09 11:43:21;;;;;;;2.85;1.80;;;;;20.00;94215.00;;;;7385783;19;20131;-77
2023/08/09 11:45:57;;;;;;;2.20;1.80;;;;;19.40;94205.00;;;;7383069;19;20166;-78
2023/08/09 11:48:34;;;;;;;6.43;1.60;;;;;19.30;94211.00;;;;7383631;19;20144;-76
2023/08/09 11:51:15;;;;;;;4.15;1.63;;;;;19.40;94207.00;;;;7384346;19;20144;-76
2023/08/09 11:53:50;;;;;;;4.13;1.60;;;;;20.10;94211.00;;;;7384174;19;20140;-78
2023/08/09 11:56:29;;;;;;;3.38;1.83;;;;;20.30;94214.00;;;;7386510;19;20466;-79
2023/08/09 11:59:00;;;;;;;3.20;1.88;;;;;20.90;94203.00;;;;7379910;19;20236;-78
2023/08/09 12:01:44;;;;;;;4.25;1.80;;;;;21.10;94204.00;;;;7383035;19;20848;-77
2023/08/09 12:04:26;;;;;;;3.40;1.70;;;;;21.50;94204.00;;;;7384638;19;20124;-79
2023/08/09 12:07:02;;;;;;;2.75;1.73;;;;;21.80;94197.00;;;;7382979;19;20144;-79
2023/08/09 12:09:37;;;;;;;3.10;1.90;;;;;21.40;94214.00;;;;7381588;19;20152;-76
2023/08/09 12:12:06;;;;;;;1.80;1.50;;;;;20.80;94213.00;;;;7383389;19;20999;-78
2023/08/09 12:14:48;;;;;;;2.53;1.83;;;;;21.40;94214.00;;;;7383467;19;20257;-79
2023/08/09 12:17:27;;;;;;;2.83;1.65;;;;;21.70;94216.00;;;;7383196;19;20514;-77
2023/08/09 12:20:04;;;;;;;5.30;1.83;;;;;21.00;94230.00;;;;7383017;19;20154;-75
2023/08/09 12:22:39;;;;;;;5.70;1.50;;;;;21.10;94225.00;;;;7383578;19;20216;-75
2023/08/09 12:25:13;;;;;;;2.60;1.77;;;;;21.20;94214.00;;;;7383818;19;20144;-74
2023/08/09 12:27:40;;;;;;;1.90;1.70;;;;;20.60;94237.00;;;;7391202;19;20136;-74
2023/08/09 12:30:15;;;;;;;2.75;1.77;;;;;20.60;94246.00;;;;7386830;19;20172;-73
2023/08/09 12:32:53;;;;;;;2.35;1.63;;;;;20.70;94259.00;;;;7388824;19;20152;-74
2023/08/09 12:35:27;;;;;;;2.70;2.20;;;;;19.80;94266.00;;;;7391093;19;20149;-77
2023/08/09 12:37:57;;;;;;;3.05;1.95;;;;;19.80;94264.00;;;;7386878;19;20149;-76
2023/08/09 12:40:31;;;;;;;2.15;1.95;;;;;20.20;94257.00;;;;7387260;19;20148;-76
2023/08/09 12:43:06;;;;;;;3.88;2.08;;;;;20.10;94260.00;;;;7391978;19;20136;-78
2023/08/09 12:45:33;;;;;;;2.03;1.70;;;;;20.80;94245.00;;;;7390499;19;20602;-76
2023/08/09 12:48:08;;;;;;;4.28;2.30;;;;;19.90;94260.00;;;;7386818;19;20158;-77
2023/08/09 12:50:37;;;;;;;3.22;2.00;;;;;20.50;94246.00;;;;7388356;19;20750;-80
2023/08/09 12:53:14;;;;;;;3.08;2.13;;;;;21.20;94263.00;;;;7388420;19;20204;-82